createdAt,value
2019-02-22T00:15:50.945Z,95071.38
2019-02-22T00:30:52.869Z,95052.08
2019-02-22T00:45:51.825Z,95025.20
2019-02-22T01:00:54.176Z,95009.81
2019-02-22T01:15:51.086Z,95000.41
2019-02-22T01:30:50.947Z,94976.72
2019-02-22T01:45:50.852Z,94963.02
2019-02-22T02:00:52.772Z,94937.59
2019-02-22T02:15:53.161Z,94925.64
2019-02-22T02:30:51.061Z,94901.14
2019-02-22T02:45:51.064Z,94888.10
2019-02-22T03:00:50.903Z,94875.55
2019-02-22T03:15:51.360Z,94854.19
2019-02-22T03:30:51.271Z,94831.52
2019-02-22T03:45:51.101Z,94815.11
2019-02-22T04:00:53.274Z,94797.91
2019-02-22T04:15:51.457Z,94787.20
2019-02-22T04:30:50.996Z,94766.78
2019-02-22T04:45:50.951Z,94765.19
2019-02-22T05:00:50.900Z,94749.72
2019-02-22T05:15:50.717Z,94759.73
2019-02-22T05:30:51.072Z,94757.86
2019-02-22T05:45:50.988Z,94750.67
2019-02-22T06:00:51.377Z,94745.41
2019-02-22T06:15:50.559Z,94738.88
2019-02-22T06:30:50.387Z,94728.58
2019-02-22T06:45:51.428Z,94718.55
2019-02-22T07:00:51.229Z,94697.86
2019-02-22T07:15:51.429Z,94672.45
2019-02-22T07:30:56.028Z,94651.92
2019-02-22T07:45:57.425Z,94653.80
2019-02-22T08:00:51.202Z,94643.94
2019-02-22T08:15:50.450Z,94629.31
2019-02-22T08:30:53.407Z,94604.97
2019-02-22T09:00:51.289Z,94572.56
2019-02-22T09:15:50.676Z,94559.03
2019-02-22T09:30:50.379Z,94549.39
2019-02-22T09:45:51.504Z,94547.19
2019-02-22T10:00:53.800Z,94536.41
2019-02-22T10:15:50.775Z,94522.75
2019-02-22T10:30:50.614Z,94506.70
2019-02-22T10:45:50.540Z,94487.55
2019-02-22T11:00:50.541Z,94459.53
2019-02-22T11:15:50.825Z,94446.97
2019-02-22T11:30:51.340Z,94439.13
2019-02-22T11:45:50.778Z,94415.05
2019-02-22T12:00:50.688Z,94391.02
2019-02-22T12:15:51.044Z,94371.34
2019-02-22T12:30:50.952Z,94349.08
2019-02-22T12:45:50.965Z,94355.14
2019-02-22T13:00:52.801Z,94357.83
2019-02-22T13:15:51.228Z,94349.30
2019-02-22T13:30:51.160Z,94342.83
2019-02-22T13:45:51.108Z,94330.39
2019-02-22T14:00:53.065Z,94325.80
2019-02-22T14:15:51.397Z,94330.34
2019-02-22T14:30:53.386Z,94324.34
2019-02-22T14:45:53.191Z,94314.48
2019-02-22T15:00:51.179Z,94308.84
2019-02-22T15:16:00.558Z,94320.77
2019-02-22T15:30:50.601Z,94324.48
2019-02-22T15:45:50.672Z,94335.52
2019-02-22T16:00:51.323Z,94338.47
2019-02-22T16:15:50.735Z,94351.01
2019-02-22T16:30:50.699Z,94361.77
2019-02-22T16:45:52.743Z,94364.97
2019-02-22T17:00:51.783Z,94374.38
2019-02-22T17:15:52.934Z,94387.16
2019-02-22T17:30:50.928Z,94385.09
2019-02-22T17:45:50.794Z,94388.25
2019-02-22T18:00:52.878Z,94384.36
2019-02-22T18:15:51.672Z,94370.28
2019-02-22T18:30:51.663Z,94365.30
2019-02-22T18:45:51.095Z,94354.63
2019-02-22T19:00:51.053Z,94343.66
2019-02-22T19:15:51.785Z,94343.12
2019-02-22T19:30:52.025Z,94349.11
2019-02-22T19:45:51.246Z,94348.57
2019-02-22T20:00:51.311Z,94338.67
2019-02-22T20:15:52.721Z,94323.09
2019-02-22T20:30:50.620Z,94310.36
2019-02-22T20:45:51.559Z,94314.28
2019-02-22T21:00:50.762Z,94303.59
2019-02-22T21:15:52.704Z,94302.55
2019-02-22T21:30:50.625Z,94299.44
2019-02-22T21:45:50.596Z,94301.27
2019-02-22T22:00:50.503Z,94299.16
2019-02-22T22:15:52.496Z,94299.69
2019-02-22T22:30:51.337Z,94320.30
2019-02-22T22:45:51.590Z,94353.09
2019-02-22T23:00:58.828Z,94462.66
2019-02-22T23:15:50.563Z,94564.00
2019-02-22T23:30:50.496Z,94567.03
2019-02-22T23:45:50.438Z,94647.39
